Time;durP1;ratioP1;P1;durP2;ratioP2;P2;SDS_P1;SDS_P2;PMS_P1;PMS_P2;Temp;Humidity;BMP_temperature;BMP_pressure;BME280_temperature;BME280_humidity;BME280_pressure;Samples;Min_cycle;Max_cycle;Signal;HPM_P1;HPM_P2
2021/11/17 02:26:29;;;;;;;11.03;7.07;;;7.80;99.90;;;;;;6063504;23;20422;-88
2021/11/17 02:29:32;;;;;;;9.47;6.90;;;7.80;99.90;;;;;;6055797;23;20448;-87
2021/11/17 02:32:20;;;;;;;10.60;6.80;;;7.80;99.90;;;;;;6053516;23;20413;-87
2021/11/17 02:34:58;;;;;;;11.50;7.93;;;7.80;99.90;;;;;;6054409;23;20413;-86
2021/11/17 02:37:51;;;;;;;11.37;8.07;;;7.80;99.90;;;;;;6054546;23;20416;-87
2021/11/17 02:40:39;;;;;;;10.63;7.53;;;7.80;99.90;;;;;;6055356;23;20437;-87
2021/11/17 02:43:22;;;;;;;9.67;7.33;;;7.80;99.90;;;;;;6025239;23;20427;-85
2021/11/17 02:46:20;;;;;;;12.37;8.60;;;7.90;99.90;;;;;;6164784;23;20505;-88
2021/11/17 02:49:13;;;;;;;11.97;8.13;;;7.90;99.90;;;;;;6144342;23;20509;-86
2021/11/17 02:51:58;;;;;;;13.10;8.20;;;7.90;99.90;;;;;;6139501;23;20414;-86
2021/11/17 02:54:57;;;;;;;20.30;8.30;;;7.80;99.90;;;;;;6170649;23;20416;-85
2021/11/17 02:57:30;;;;;;;11.07;8.47;;;7.80;99.90;;;;;;6171903;23;20472;-87
2021/11/17 03:00:27;;;;;;;11.00;7.60;;;7.90;99.90;;;;;;6144910;23;20511;-87
2021/11/17 03:03:16;;;;;;;17.00;8.30;;;7.90;99.90;;;;;;6141547;23;20497;-87
2021/11/17 03:06:18;;;;;;;18.17;8.93;;;7.90;99.90;;;;;;6167905;23;20504;-86
2021/11/17 03:09:06;;;;;;;13.30;8.73;;;7.90;99.90;;;;;;6136351;23;20539;-86
2021/11/17 03:11:47;;;;;;;17.40;8.13;;;7.80;99.90;;;;;;6167273;23;21010;-87
2021/11/17 03:14:30;;;;;;;14.67;10.03;;;7.80;99.90;;;;;;6167984;23;20413;-87
2021/11/17 03:17:06;;;;;;;13.27;9.07;;;7.90;99.90;;;;;;6144272;23;20437;-89
2021/11/17 03:20:01;;;;;;;11.50;8.30;;;7.80;99.90;;;;;;6167208;23;20446;-88
2021/11/17 03:22:39;;;;;;;13.47;8.77;;;7.90;99.90;;;;;;6166076;23;20678;-88
2021/11/17 03:25:06;;;;;;;13.33;8.13;;;7.90;99.90;;;;;;6169480;23;20428;-87
2021/11/17 03:27:45;;;;;;;14.13;8.73;;;7.80;99.90;;;;;;6168045;23;20704;-88
2021/11/17 03:30:25;;;;;;;14.40;10.07;;;7.80;99.90;;;;;;6175564;23;20465;-89
2021/11/17 03:32:55;;;;;;;13.40;9.50;;;7.90;99.90;;;;;;6144737;23;20413;-86
2021/11/17 03:35:57;;;;;;;13.10;8.90;;;7.90;99.90;;;;;;6171419;23;20412;-88
2021/11/17 03:38:49;;;;;;;15.13;9.37;;;7.90;99.90;;;;;;6148263;23;20516;-87
2021/11/17 03:41:38;;;;;;;13.67;9.70;;;8.30;99.90;;;;;;6156734;23;20445;-88
2021/11/17 03:44:24;;;;;;;16.57;10.27;;;8.60;99.90;;;;;;6160841;23;20425;-89
2021/11/17 03:47:09;;;;;;;15.43;9.80;;;8.70;99.90;;;;;;6192762;22;20435;-88
2021/11/17 03:49:51;;;;;;;19.83;10.70;;;8.70;99.90;;;;;;6193109;22;20501;-89
2021/11/17 03:52:36;;;;;;;16.80;10.37;;;8.60;99.90;;;;;;6193305;22;20470;-90
2021/11/17 03:55:31;;;;;;;18.03;10.77;;;8.60;99.90;;;;;;6193057;22;20484;-89
2021/11/17 03:58:29;;;;;;;17.73;9.60;;;8.60;99.90;;;;;;6184384;23;20916;-89
2021/11/17 04:00:59;;;;;;;19.23;11.80;;;8.60;99.90;;;;;;6152933;23;20433;-89
2021/11/17 04:03:54;;;;;;;19.47;11.40;;;8.50;99.90;;;;;;6171408;23;20415;-88
2021/11/17 04:06:45;;;;;;;15.53;10.57;;;8.50;99.90;;;;;;6171893;23;20666;-88
2021/11/17 04:09:41;;;;;;;16.60;10.37;;;8.40;99.90;;;;;;6172436;23;20507;-88
2021/11/17 04:12:29;;;;;;;18.07;10.80;;;8.40;99.90;;;;;;6168086;23;20519;-88
2021/11/17 04:15:26;;;;;;;14.93;10.23;;;8.50;99.90;;;;;;6145348;23;20786;-88
2021/11/17 04:18:27;;;;;;;18.00;11.77;;;8.40;99.90;;;;;;6170015;23;20433;-88
2021/11/17 04:21:00;;;;;;;14.80;10.67;;;8.40;99.90;;;;;;6138841;23;20452;-88
2021/11/17 04:23:55;;;;;;;15.20;10.73;;;8.40;99.90;;;;;;6166336;23;20426;-89
2021/11/17 04:26:35;;;;;;;14.80;9.60;;;8.40;99.90;;;;;;6171157;23;20422;-88
2021/11/17 04:29:15;;;;;;;16.70;11.10;;;8.40;99.90;;;;;;6146062;23;20444;-87
2021/11/17 04:31:55;;;;;;;19.30;11.93;;;8.50;99.90;;;;;;6167687;23;20407;-87
2021/11/17 04:34:35;;;;;;;17.70;9.60;;;8.50;99.90;;;;;;6145172;23;20761;-87
2021/11/17 04:37:21;;;;;;;15.87;9.83;;;8.50;99.90;;;;;;6146841;23;20425;-87
2021/11/17 04:39:55;;;;;;;16.97;10.77;;;8.40;99.90;;;;;;6145645;23;20443;-86
2021/11/17 04:42:47;;;;;;;18.00;10.77;;;8.40;99.90;;;;;;6171613;23;20412;-87
2021/11/17 04:45:55;;;;;;;18.00;10.80;;;8.40;99.90;;;;;;6171260;23;20421;-87
2021/11/17 04:48:28;;;;;;;15.70;10.37;;;8.40;99.90;;;;;;6139476;23;20436;-88
2021/11/17 04:51:13;;;;;;;18.37;10.17;;;8.40;99.90;;;;;;6171313;23;20508;-86
2021/11/17 04:53:59;;;;;;;17.60;11.10;;;8.40;99.90;;;;;;6170436;23;20485;-87
2021/11/17 04:56:50;;;;;;;15.53;10.20;;;8.40;99.90;;;;;;6177706;23;20394;-88
2021/11/17 04:59:35;;;;;;;16.37;10.37;;;8.40;99.90;;;;;;6178544;23;20446;-86
2021/11/17 05:02:12;;;;;;;16.20;10.30;;;8.30;99.90;;;;;;6171055;23;20495;-88
2021/11/17 05:05:00;;;;;;;17.03;9.30;;;8.40;99.90;;;;;;6170636;23;20468;-89
2021/11/17 05:07:42;;;;;;;15.50;10.23;;;8.40;99.90;;;;;;6168965;23;20427;-88
2021/11/17 05:10:37;;;;;;;12.37;9.40;;;8.40;99.90;;;;;;6168109;23;20962;-88
2021/11/17 05:13:28;;;;;;;13.93;9.53;;;8.10;99.90;;;;;;6144937;23;20431;-88
2021/11/17 05:16:39;;;;;;;16.20;9.80;;;8.00;99.90;;;;;;6143057;23;20423;-89
2021/11/17 05:19:54;;;;;;;13.20;8.53;;;7.90;99.90;;;;;;6149237;23;20576;-87
2021/11/17 05:22:44;;;;;;;14.23;9.00;;;7.90;99.90;;;;;;6132782;23;20838;-88
2021/11/17 05:25:32;;;;;;;15.20;9.60;;;8.30;99.90;;;;;;6187021;23;20417;-87
2021/11/17 05:28:21;;;;;;;15.10;9.30;;;8.40;99.90;;;;;;6147203;23;20774;-89
2021/11/17 05:31:08;;;;;;;14.50;9.20;;;8.30;99.90;;;;;;6149135;23;20483;-89
2021/11/17 05:33:44;;;;;;;15.30;10.53;;;8.20;99.90;;;;;;6167957;23;20412;-88
2021/11/17 05:36:29;;;;;;;16.57;10.30;;;8.60;99.90;;;;;;6170193;23;20456;-89
2021/11/17 05:39:34;;;;;;;14.17;9.60;;;8.80;99.90;;;;;;6144475;23;20483;-88
2021/11/17 05:42:24;;;;;;;16.40;10.33;;;8.60;99.90;;;;;;6166323;23;20923;-89
2021/11/17 05:44:54;;;;;;;13.83;10.07;;;8.70;99.90;;;;;;6191054;23;20423;-88
2021/11/17 05:47:31;;;;;;;14.57;10.13;;;8.60;99.90;;;;;;6168484;23;20445;-87
2021/11/17 05:50:05;;;;;;;15.13;9.80;;;8.30;99.90;;;;;;6174194;23;20503;-88
2021/11/17 05:53:06;;;;;;;16.87;10.23;;;8.50;99.90;;;;;;6172909;23;20420;-87
2021/11/17 05:56:06;;;;;;;14.33;9.80;;;8.50;99.90;;;;;;6149133;23;20479;-88
2021/11/17 05:59:01;;;;;;;12.97;9.60;;;8.40;99.90;;;;;;6150608;23;20505;-87
2021/11/17 06:01:51;;;;;;;16.80;9.93;;;8.70;99.90;;;;;;6154773;23;20401;-87
2021/11/17 06:04:18;;;;;;;16.73;9.70;;;8.50;99.90;;;;;;6173772;23;20423;-90
2021/11/17 06:06:45;;;;;;;15.50;9.80;;;8.50;99.90;;;;;;6182986;23;20447;-87
2021/11/17 06:09:12;;;;;;;16.03;10.33;;;8.70;99.90;;;;;;6177641;23;20911;-87
2021/11/17 06:12:01;;;;;;;17.70;11.10;;;8.70;99.90;;;;;;6173052;23;20929;-86
2021/11/17 06:14:32;;;;;;;13.77;9.00;;;8.60;99.90;;;;;;6173596;23;20962;-88
2021/11/17 06:17:07;;;;;;;16.10;9.90;;;8.40;99.90;;;;;;6174257;23;20413;-88
2021/11/17 06:19:39;;;;;;;13.50;10.13;;;8.40;99.90;;;;;;6204620;23;20445;-87
2021/11/17 06:22:07;;;;;;;15.73;10.27;;;8.30;99.90;;;;;;6182794;23;20479;-88
2021/11/17 06:24:37;;;;;;;16.03;9.50;;;8.30;99.90;;;;;;6183659;23;20414;-87
2021/11/17 06:27:21;;;;;;;14.80;9.30;;;8.40;99.90;;;;;;6169392;23;20429;-87
2021/11/17 06:32:26;;;;;;;14.03;8.90;;;8.20;99.90;;;;;;6142580;23;20732;-85
2021/11/17 06:34:59;;;;;;;14.30;8.47;;;8.00;99.90;;;;;;6141123;23;20408;-87
2021/11/17 06:37:28;;;;;;;15.03;10.07;;;8.20;99.90;;;;;;6128773;23;20454;-91
2021/11/17 06:39:58;;;;;;;17.27;11.53;;;8.40;99.90;;;;;;6138151;23;20437;-90
2021/11/17 06:42:36;;;;;;;17.73;10.90;;;8.40;99.90;;;;;;6135593;23;20488;-89
2021/11/17 06:45:10;;;;;;;17.17;11.60;;;8.40;99.90;;;;;;6159612;23;20478;-88
2021/11/17 06:47:37;;;;;;;16.67;10.00;;;8.30;99.90;;;;;;6130410;23;20445;-87
2021/11/17 06:50:10;;;;;;;17.23;10.27;;;8.30;99.90;;;;;;6113364;23;20460;-87
2021/11/17 06:52:37;;;;;;;16.63;9.20;;;8.20;99.90;;;;;;6108199;23;20988;-87
2021/11/17 06:55:17;;;;;;;14.33;9.43;;;8.10;99.90;;;;;;6112852;23;20459;-87
2021/11/17 06:57:46;;;;;;;16.13;9.50;;;7.80;99.90;;;;;;6113180;23;20415;-87
2021/11/17 07:00:30;;;;;;;15.40;9.40;;;7.70;99.90;;;;;;6118549;23;20501;-88
2021/11/17 07:02:59;;;;;;;17.37;9.70;;;7.80;99.90;;;;;;6135406;23;20402;-88
2021/11/17 07:05:53;;;;;;;16.07;9.50;;;7.80;99.90;;;;;;6126021;23;20434;-89
2021/11/17 07:08:23;;;;;;;13.80;8.80;;;8.00;99.90;;;;;;6119902;23;20494;-86
2021/11/17 07:10:50;;;;;;;15.53;10.33;;;7.80;99.90;;;;;;6117747;23;20449;-89
2021/11/17 07:13:20;;;;;;;15.10;9.33;;;8.10;99.90;;;;;;6120251;23;20417;-86
2021/11/17 07:16:02;;;;;;;18.30;10.60;;;8.20;99.90;;;;;;6119581;23;20476;-89
2021/11/17 07:18:32;;;;;;;18.90;10.43;;;8.20;99.90;;;;;;6113778;23;20424;-88
2021/11/17 07:20:59;;;;;;;16.63;9.57;;;8.20;99.90;;;;;;6115550;23;20438;-87
2021/11/17 07:23:31;;;;;;;13.53;8.80;;;8.10;99.90;;;;;;6122863;23;20409;-85
2021/11/17 07:26:17;;;;;;;14.50;9.80;;;8.00;99.90;;;;;;6118078;23;21258;-88
2021/11/17 07:28:45;;;;;;;13.70;8.33;;;8.00;99.90;;;;;;6117845;23;20418;-90
2021/11/17 07:31:27;;;;;;;16.03;9.03;;;8.40;99.90;;;;;;6122219;23;20801;-87
2021/11/17 07:33:54;;;;;;;12.50;8.80;;;8.40;99.90;;;;;;6109194;23;21242;-89
2021/11/17 07:36:21;;;;;;;13.37;8.00;;;8.40;99.90;;;;;;6105930;23;20976;-88
2021/11/17 07:38:50;;;;;;;17.70;7.97;;;8.60;99.90;;;;;;6104512;23;20425;-89
2021/11/17 07:41:17;;;;;;;12.70;8.20;;;8.50;99.90;;;;;;6108136;23;20449;-85
2021/11/17 07:43:44;;;;;;;14.30;8.50;;;8.40;99.90;;;;;;6105068;23;20424;-88
2021/11/17 07:46:17;;;;;;;14.97;8.80;;;8.40;99.90;;;;;;6104362;23;20436;-89
2021/11/17 07:48:43;;;;;;;17.70;10.83;;;8.40;99.90;;;;;;6105932;23;20812;-89
2021/11/17 07:51:12;;;;;;;16.40;9.33;;;8.30;99.90;;;;;;6106161;23;20566;-88
2021/11/17 07:53:39;;;;;;;16.30;9.70;;;8.40;99.90;;;;;;6105205;23;20491;-88
2021/11/17 07:56:07;;;;;;;14.23;8.87;;;8.50;99.90;;;;;;6104349;23;20917;-86
2021/11/17 07:58:40;;;;;;;17.03;10.13;;;8.50;99.90;;;;;;6104818;23;20508;-86
2021/11/17 08:01:16;;;;;;;15.90;9.47;;;8.70;99.90;;;;;;6106862;23;20530;-87
2021/11/17 08:03:59;;;;;;;16.37;9.90;;;8.70;99.90;;;;;;6112443;23;20408;-88
2021/11/17 08:06:30;;;;;;;14.30;8.20;;;8.50;99.90;;;;;;6125394;23;20408;-87
2021/11/17 08:09:13;;;;;;;;;;;;;;;;;;;;;
2021/11/17 08:12:38;;;;;;;12.90;9.07;;;8.40;99.90;;;;;;6123629;23;20409;-87
2021/11/17 08:15:06;;;;;;;13.23;9.50;;;8.30;99.90;;;;;;5983254;23;20429;-88
2021/11/17 08:17:33;;;;;;;14.13;9.30;;;8.50;99.90;;;;;;6107543;23;20423;-88
2021/11/17 08:20:37;;;;;;;16.67;10.10;;;8.30;99.90;;;;;;6107404;23;20436;-88
2021/11/17 08:23:13;;;;;;;15.37;8.40;;;8.60;99.90;;;;;;6105694;23;20504;-88
2021/11/17 08:25:47;;;;;;;14.30;8.90;;;8.70;99.90;;;;;;6107435;23;20898;-88
2021/11/17 08:28:20;;;;;;;12.60;8.50;;;8.80;99.90;;;;;;6108254;23;20413;-87
2021/11/17 08:30:48;;;;;;;13.20;8.47;;;8.90;99.90;;;;;;6099454;23;20974;-87
2021/11/17 08:33:15;;;;;;;14.10;9.23;;;8.80;99.90;;;;;;6106093;23;20502;-88
2021/11/17 08:35:49;;;;;;;13.30;8.73;;;8.90;99.90;;;;;;6106864;23;20481;-88
2021/11/17 08:38:20;;;;;;;11.70;7.90;;;8.90;99.90;;;;;;6104720;23;20419;-87
2021/11/17 08:40:54;;;;;;;11.97;8.07;;;8.90;99.90;;;;;;6108881;23;20446;-87
2021/11/17 08:43:31;;;;;;;13.17;8.17;;;9.00;99.90;;;;;;6104903;23;20571;-88
2021/11/17 08:45:59;;;;;;;12.60;8.20;;;9.00;99.90;;;;;;6104996;23;20426;-89
2021/11/17 08:48:37;;;;;;;13.70;8.50;;;9.00;99.90;;;;;;6119540;23;20741;-87
2021/11/17 08:54:14;;;;;;;11.03;7.50;;;8.90;99.90;;;;;;6117704;23;20545;-88
2021/11/17 08:56:41;;;;;;;12.33;8.80;;;9.00;99.90;;;;;;6112727;23;20492;-87
2021/11/17 08:59:08;;;;;;;11.17;7.00;;;8.90;99.90;;;;;;6108687;23;21213;-87
2021/11/17 09:02:20;;;;;;;11.73;7.87;;;8.90;99.90;;;;;;6000948;23;20405;-87
2021/11/17 09:04:59;;;;;;;11.37;7.07;;;8.60;99.90;;;;;;6017409;23;20420;-88
2021/11/17 09:07:38;;;;;;;11.37;7.97;;;8.50;99.90;;;;;;5993957;23;20423;-87
2021/11/17 09:10:11;;;;;;;9.00;6.57;;;8.70;99.90;;;;;;5993469;23;20895;-88
2021/11/17 09:12:49;;;;;;;10.03;6.50;;;8.70;99.90;;;;;;5994492;23;20424;-89
2021/11/17 09:15:23;;;;;;;11.90;7.60;;;8.90;99.90;;;;;;5993470;23;20414;-90
2021/11/17 09:17:56;;;;;;;9.17;6.33;;;9.00;99.90;;;;;;5992562;23;20413;-89
2021/11/17 09:20:23;;;;;;;10.07;6.53;;;8.70;99.90;;;;;;6074686;23;20448;-87
2021/11/17 09:22:51;;;;;;;10.60;6.90;;;8.90;99.90;;;;;;6106152;23;20504;-86
2021/11/17 09:25:21;;;;;;;8.97;5.83;;;9.10;99.90;;;;;;6104440;23;20455;-89
2021/11/17 09:27:48;;;;;;;8.97;6.30;;;9.10;99.90;;;;;;6105522;23;20499;-88
2021/11/17 09:30:39;;;;;;;9.90;6.27;;;9.10;99.90;;;;;;6103151;23;20483;-89
2021/11/17 09:33:10;;;;;;;10.43;6.70;;;9.00;99.90;;;;;;6107517;23;20476;-88
2021/11/17 09:35:38;;;;;;;9.07;6.60;;;9.10;99.90;;;;;;6103752;23;20456;-88
2021/11/17 09:38:29;;;;;;;8.43;5.87;;;9.20;99.90;;;;;;6103810;23;20983;-88
2021/11/17 09:41:16;;;;;;;8.67;6.00;;;9.10;99.90;;;;;;6102794;23;20440;-88
2021/11/17 09:43:46;;;;;;;8.67;5.90;;;9.20;99.90;;;;;;6102880;23;20483;-88
2021/11/17 09:46:19;;;;;;;7.70;5.10;;;9.20;99.90;;;;;;6105800;23;20414;-87
2021/11/17 09:49:11;;;;;;;9.07;5.53;;;9.30;99.90;;;;;;6034098;23;20411;-87
2021/11/17 09:51:46;;;;;;;9.57;6.00;;;9.30;99.90;;;;;;6102764;23;20452;-88
2021/11/17 09:54:24;;;;;;;8.80;5.00;;;9.20;99.90;;;;;;6101151;23;20418;-83
2021/11/17 09:57:06;;;;;;;6.33;4.97;;;9.20;99.90;;;;;;6100658;23;20430;-85
2021/11/17 09:59:57;;;;;;;9.77;5.30;;;9.40;99.90;;;;;;6098198;23;20438;-84
2021/11/17 10:02:37;;;;;;;8.33;5.47;;;9.30;99.90;;;;;;6096300;23;20735;-85
2021/11/17 10:15:01;;;;;;;7.80;5.37;;;9.40;99.90;;;;;;6100953;23;20954;-84
2021/11/17 10:17:28;;;;;;;10.07;5.07;;;9.40;99.90;;;;;;6101361;23;21004;-85
2021/11/17 10:20:17;;;;;;;7.13;4.67;;;9.30;99.90;;;;;;6069860;23;20474;-85
2021/11/17 10:22:52;;;;;;;7.73;5.73;;;9.20;99.90;;;;;;6059961;23;20555;-85
2021/11/17 10:25:22;;;;;;;7.17;5.40;;;9.50;99.90;;;;;;6099319;23;20415;-85
2021/11/17 10:27:58;;;;;;;8.40;5.80;;;9.50;99.90;;;;;;6095345;23;20423;-86
2021/11/17 10:30:34;;;;;;;8.93;4.80;;;9.40;99.90;;;;;;6103840;23;20630;-86
2021/11/17 10:33:10;;;;;;;7.70;5.07;;;9.30;99.90;;;;;;6097189;23;20428;-84
2021/11/17 10:36:16;;;;;;;11.23;5.87;;;9.30;99.90;;;;;;6097630;23;20428;-86
2021/11/17 10:38:47;;;;;;;8.00;5.40;;;9.30;99.90;;;;;;6100396;23;20790;-85
2021/11/17 10:41:23;;;;;;;10.47;6.13;;;9.40;99.90;;;;;;6098239;23;20544;-86
2021/11/17 10:43:56;;;;;;;7.47;5.53;;;9.50;99.90;;;;;;6103589;23;20804;-86
2021/11/17 10:46:53;;;;;;;7.53;5.97;;;9.30;99.90;;;;;;6099634;23;20772;-86
2021/11/17 10:49:34;;;;;;;7.30;4.50;;;9.40;99.90;;;;;;6101471;23;20446;-85
2021/11/17 10:52:20;;;;;;;7.87;5.77;;;9.60;99.90;;;;;;6129202;23;20469;-85
2021/11/17 10:55:04;;;;;;;8.20;6.00;;;9.60;99.90;;;;;;6018982;23;20462;-85
2021/11/17 10:58:02;;;;;;;8.57;6.53;;;9.60;99.90;;;;;;4552080;27;16910422;-87
2021/11/17 11:00:39;;;;;;;7.77;6.13;;;9.50;99.90;;;;;;5123211;27;20755;-88
2021/11/17 11:03:14;;;;;;;9.37;5.73;;;9.70;99.90;;;;;;5136471;27;20479;-85
2021/11/17 11:06:09;;;;;;;9.73;6.63;;;9.80;99.90;;;;;;5111604;27;20450;-83
2021/11/17 11:08:54;;;;;;;6.93;5.37;;;9.80;99.90;;;;;;5117615;27;20459;-88
2021/11/17 11:11:24;;;;;;;8.47;5.93;;;9.60;99.90;;;;;;5132262;27;20913;-87
2021/11/17 11:14:19;;;;;;;8.70;6.20;;;9.60;99.90;;;;;;5103111;27;20447;-86
2021/11/17 11:16:52;;;;;;;7.53;6.07;;;9.60;99.90;;;;;;5112848;27;20919;-84
2021/11/17 11:19:21;;;;;;;8.13;5.53;;;9.50;99.90;;;;;;5113550;27;20552;-86
2021/11/17 11:22:23;;;;;;;9.63;6.70;;;9.40;99.90;;;;;;5116512;27;20538;-87
2021/11/17 11:24:54;;;;;;;11.37;6.20;;;9.60;99.90;;;;;;5103502;27;21093;-87
2021/11/17 11:28:09;;;;;;;8.70;6.23;;;9.50;99.90;;;;;;5103902;27;20459;-85
2021/11/17 11:30:41;;;;;;;7.87;5.80;;;9.60;99.90;;;;;;5140449;27;20545;-86
2021/11/17 11:33:38;;;;;;;8.00;5.50;;;9.40;99.90;;;;;;5134927;27;20481;-88
2021/11/17 11:36:24;;;;;;;9.80;6.30;;;9.40;99.90;;;;;;5128458;27;20497;-85
2021/11/17 11:38:59;;;;;;;19.70;6.97;;;9.70;99.90;;;;;;5115636;27;20445;-85
2021/11/17 11:41:43;;;;;;;10.83;7.60;;;9.80;99.90;;;;;;5116584;27;20452;-86
2021/11/17 11:44:35;;;;;;;8.80;6.63;;;9.80;99.90;;;;;;5116120;27;20440;-87
2021/11/17 11:47:08;;;;;;;9.50;6.47;;;9.90;99.90;;;;;;5146831;27;20424;-88
2021/11/17 11:49:55;;;;;;;10.37;5.97;;;9.90;99.90;;;;;;5129686;27;20472;-87
2021/11/17 11:53:06;;;;;;;11.07;6.67;;;9.90;99.90;;;;;;5122579;27;20975;-86
2021/11/17 11:55:54;;;;;;;10.43;6.80;;;9.90;99.90;;;;;;5104553;27;20474;-87
2021/11/17 11:58:26;;;;;;;12.47;6.60;;;9.90;99.90;;;;;;5122069;27;20446;-90
2021/11/17 12:01:03;;;;;;;10.47;6.90;;;9.90;99.90;;;;;;5130819;27;20471;-88
2021/11/17 12:04:10;;;;;;;10.10;7.10;;;10.00;99.90;;;;;;5131122;27;20484;-88
2021/11/17 12:07:00;;;;;;;11.70;7.17;;;10.00;99.90;;;;;;5125711;27;20550;-88
2021/11/17 12:09:51;;;;;;;8.43;6.40;;;10.00;99.90;;;;;;5104781;27;20469;-83
2021/11/17 12:12:28;;;;;;;10.27;7.03;;;9.70;99.90;;;;;;5105075;27;20520;-84
2021/11/17 12:15:18;;;;;;;9.00;7.00;;;10.00;99.90;;;;;;5096621;27;20539;-87
2021/11/17 12:17:47;;;;;;;13.00;6.10;;;10.00;99.90;;;;;;5119374;27;20547;-85
2021/11/17 12:20:35;;;;;;;7.37;5.70;;;9.90;99.90;;;;;;5096713;27;20468;-84
2021/11/17 12:23:32;;;;;;;9.13;6.43;;;9.90;99.90;;;;;;5115047;27;20525;-87
2021/11/17 12:26:16;;;;;;;9.53;6.77;;;10.00;99.90;;;;;;5118132;27;21067;-87
2021/11/17 12:29:15;;;;;;;9.50;6.37;;;10.00;99.90;;;;;;5104483;27;20502;-86
2021/11/17 12:32:20;;;;;;;8.70;6.67;;;9.90;99.90;;;;;;5100004;27;20448;-85
2021/11/17 12:35:40;;;;;;;9.60;7.17;;;10.10;99.90;;;;;;5103010;27;20441;-86
2021/11/17 12:38:40;;;;;;;10.97;7.83;;;10.20;99.90;;;;;;5103055;27;20465;-86
2021/11/17 12:41:28;;;;;;;13.17;7.00;;;10.10;99.90;;;;;;5118199;27;21124;-84
2021/11/17 12:44:22;;;;;;;9.03;6.67;;;10.00;99.90;;;;;;5083412;27;20521;-86
2021/11/17 12:47:16;;;;;;;10.47;7.10;;;10.20;99.90;;;;;;5099139;27;20447;-86
2021/11/17 12:50:03;;;;;;;9.17;6.30;;;10.20;99.90;;;;;;5111599;27;20556;-86
2021/11/17 12:53:20;;;;;;;11.17;7.50;;;10.20;99.90;;;;;;5111334;27;20448;-87
2021/11/17 12:56:03;;;;;;;10.20;6.80;;;10.20;99.90;;;;;;5091335;27;20440;-86
2021/11/17 13:02:07;;;;;;;11.50;7.33;;;10.20;99.90;;;;;;4931609;28;20473;-84
2021/11/17 13:04:41;;;;;;;9.40;7.03;;;10.10;99.90;;;;;;4944888;28;20448;-86
2021/11/17 13:07:13;;;;;;;9.97;7.20;;;10.30;99.90;;;;;;4947351;28;20445;-85
2021/11/17 13:09:40;;;;;;;11.33;7.40;;;10.40;99.90;;;;;;4950376;28;20479;-86
2021/11/17 13:12:38;;;;;;;9.27;7.03;;;10.30;99.90;;;;;;4950383;28;20488;-86
2021/11/17 13:15:05;;;;;;;10.43;6.90;;;10.20;99.90;;;;;;4949771;28;20474;-85
2021/11/17 13:21:23;;;;;;;11.97;7.07;;;10.20;99.90;;;;;;4960822;23;20508;-84
2021/11/17 13:23:59;;;;;;;8.50;6.97;;;10.30;99.90;;;;;;4949948;28;21002;-85
2021/11/17 13:27:09;;;;;;;10.80;7.37;;;10.20;99.90;;;;;;4951760;28;22060;-88
2021/11/17 13:29:54;;;;;;;10.77;7.87;;;10.10;99.90;;;;;;4933540;28;21007;-86
2021/11/17 13:32:38;;;;;;;9.43;7.10;;;10.10;99.90;;;;;;4886403;29;20707;-84
2021/11/17 13:35:23;;;;;;;11.23;8.67;;;10.30;99.90;;;;;;4906026;28;20555;-86
2021/11/17 13:38:06;;;;;;;10.10;7.80;;;10.30;99.90;;;;;;4935759;28;20493;-85
2021/11/17 13:40:33;;;;;;;10.77;7.70;;;10.70;99.90;;;;;;5141678;22;20501;-86
2021/11/17 13:43:01;;;;;;;14.10;7.90;;;10.60;99.90;;;;;;4950607;28;20476;-86
2021/11/17 13:45:52;;;;;;;15.10;9.50;;;10.50;99.90;;;;;;4935404;28;20471;-87
2021/11/17 13:48:30;;;;;;;23.60;11.03;;;10.50;99.90;;;;;;4942430;28;20457;-86
2021/11/17 13:51:00;;;;;;;16.00;10.47;;;10.40;99.90;;;;;;4920955;28;20629;-87
2021/11/17 13:53:28;;;;;;;16.50;11.43;;;10.30;99.90;;;;;;4921616;29;20466;-88
2021/11/17 13:56:07;;;;;;;19.30;10.83;;;10.30;99.90;;;;;;4922275;29;20966;-87
2021/11/17 14:04:41;;;;;;;16.40;11.60;;;10.30;99.90;;;;;;4974063;28;20531;-88
2021/11/17 14:07:20;;;;;;;19.73;11.70;;;10.30;99.90;;;;;;4972876;28;20426;-88
2021/11/17 14:09:56;;;;;;;15.20;11.07;;;10.30;99.90;;;;;;4974322;28;20555;-87
2021/11/17 14:12:27;;;;;;;15.00;10.90;;;10.30;99.90;;;;;;4970808;28;20441;-89
2021/11/17 14:15:03;;;;;;;19.87;12.40;;;10.30;99.90;;;;;;4971150;28;20535;-87
2021/11/17 14:17:47;;;;;;;20.50;12.10;;;10.30;99.90;;;;;;4927725;29;20953;-87
2021/11/17 14:20:15;;;;;;;21.77;11.97;;;10.40;99.90;;;;;;4916122;29;20483;-86
2021/11/17 14:22:42;;;;;;;20.17;12.63;;;10.30;99.90;;;;;;4904293;29;20470;-87
2021/11/17 14:25:17;;;;;;;20.10;11.70;;;10.40;99.90;;;;;;4917684;29;20956;-87
2021/11/17 14:28:00;;;;;;;21.47;13.33;;;10.30;99.90;;;;;;4920570;29;20478;-87
2021/11/17 14:30:59;;;;;;;20.00;12.20;;;10.40;99.90;;;;;;4920438;29;21100;-86
2021/11/17 14:33:31;;;;;;;18.83;13.10;;;10.30;99.90;;;;;;4925745;29;20449;-88
2021/11/17 14:36:09;;;;;;;22.70;12.07;;;10.30;99.90;;;;;;4927213;29;20482;-85
2021/11/17 14:38:44;;;;;;;21.80;13.63;;;10.30;99.90;;;;;;4916543;29;20499;-85
2021/11/17 14:41:16;;;;;;;27.07;15.23;;;10.30;99.90;;;;;;4915145;29;22097;-85
2021/11/17 14:43:43;;;;;;;22.70;13.03;;;10.40;99.90;;;;;;4910609;29;21012;-89
2021/11/17 14:46:12;;;;;;;21.40;13.57;;;10.40;99.90;;;;;;4915478;29;20510;-85
2021/11/17 14:48:39;;;;;;;25.37;13.87;;;10.40;99.90;;;;;;4946622;28;20469;-87
2021/11/17 14:51:06;;;;;;;21.87;13.20;;;10.40;99.90;;;;;;4956830;28;20489;-85
2021/11/17 14:53:39;;;;;;;22.80;14.23;;;10.50;99.90;;;;;;4957730;28;20456;-87
2021/11/17 14:56:06;;;;;;;20.97;14.30;;;10.50;99.90;;;;;;4946993;28;20491;-88
2021/11/17 14:58:36;;;;;;;23.10;13.03;;;10.50;99.90;;;;;;4968471;28;20492;-88
2021/11/17 15:01:23;;;;;;;22.20;15.33;;;10.50;99.90;;;;;;4956267;28;20482;-87
2021/11/17 15:03:54;;;;;;;22.33;14.13;;;10.50;99.90;;;;;;4972970;28;20495;-86
2021/11/17 15:06:25;;;;;;;20.67;12.87;;;10.50;99.90;;;;;;4978411;28;20469;-86
2021/11/17 15:08:55;;;;;;;20.50;14.70;;;10.50;99.90;;;;;;4956502;28;20460;-87
2021/11/17 15:11:25;;;;;;;22.43;15.10;;;10.50;99.90;;;;;;4978034;28;20476;-86
2021/11/17 15:13:59;;;;;;;21.60;14.30;;;10.50;99.90;;;;;;4960844;28;20451;-86
2021/11/17 15:16:29;;;;;;;20.70;14.10;;;10.50;99.90;;;;;;4978980;28;20491;-86
2021/11/17 15:18:56;;;;;;;22.07;15.23;;;10.40;99.90;;;;;;4976281;28;20906;-85
2021/11/17 15:21:25;;;;;;;17.70;13.60;;;10.40;99.90;;;;;;4962694;28;20559;-86
2021/11/17 15:23:52;;;;;;;18.37;13.77;;;10.50;99.90;;;;;;4961829;28;20823;-87
2021/11/17 15:26:23;;;;;;;24.80;15.03;;;10.50;99.90;;;;;;4978845;28;20460;-87
2021/11/17 15:28:56;;;;;;;20.53;14.37;;;10.40;99.90;;;;;;4960512;28;21068;-86
2021/11/17 15:31:28;;;;;;;25.93;15.20;;;10.50;99.90;;;;;;4963175;28;20475;-87
2021/11/17 15:33:59;;;;;;;23.37;15.07;;;10.50;99.90;;;;;;4957852;28;20454;-86
2021/11/17 15:36:28;;;;;;;24.10;15.63;;;10.40;99.90;;;;;;4963399;28;20757;-87
2021/11/17 15:38:55;;;;;;;21.83;14.77;;;10.50;99.90;;;;;;4972178;28;20546;-86
2021/11/17 15:41:30;;;;;;;20.70;15.10;;;10.50;99.90;;;;;;4973722;28;20481;-87
2021/11/17 15:44:00;;;;;;;21.17;14.60;;;10.50;99.90;;;;;;4967064;28;20486;-87
2021/11/17 15:46:30;;;;;;;24.30;15.20;;;10.50;99.90;;;;;;4965067;28;20542;-88
2021/11/17 15:48:57;;;;;;;19.93;13.87;;;10.50;99.90;;;;;;4950720;28;20972;-88
2021/11/17 15:51:41;;;;;;;20.90;15.30;;;10.50;99.90;;;;;;4965773;28;21042;-87
2021/11/17 15:54:23;;;;;;;23.00;14.67;;;10.50;99.90;;;;;;4970391;28;20468;-88
2021/11/17 15:56:51;;;;;;;25.43;15.90;;;10.50;99.90;;;;;;4965387;28;20474;-87
2021/11/17 15:59:22;;;;;;;19.60;14.10;;;10.50;99.90;;;;;;4974390;28;20477;-87
2021/11/17 16:01:55;;;;;;;23.20;14.87;;;10.50;99.90;;;;;;4975507;28;20482;-89
2021/11/17 16:04:23;;;;;;;20.13;14.23;;;10.50;99.90;;;;;;4988271;28;21709;-88
2021/11/17 16:07:14;;;;;;;21.93;15.13;;;10.50;99.90;;;;;;4970133;28;20461;-88
2021/11/17 16:09:51;;;;;;;23.70;15.83;;;10.50;99.90;;;;;;4973513;28;20457;-87
2021/11/17 16:12:28;;;;;;;24.70;16.87;;;10.60;99.90;;;;;;4988278;28;20448;-89
2021/11/17 16:15:04;;;;;;;22.77;16.17;;;10.50;99.90;;;;;;4955828;28;20472;-89
2021/11/17 16:17:35;;;;;;;24.00;15.40;;;10.50;99.90;;;;;;4987089;28;20471;-87
2021/11/17 16:20:12;;;;;;;23.10;16.50;;;10.50;99.90;;;;;;4985655;28;20473;-89
2021/11/17 16:25:44;;;;;;;20.93;15.83;;;10.40;99.90;;;;;;4961139;28;20458;-88
2021/11/17 16:28:25;;;;;;;23.03;16.10;;;10.40;99.90;;;;;;4982253;28;20464;-87
2021/11/17 16:30:56;;;;;;;22.03;15.63;;;10.40;99.90;;;;;;4988854;28;20574;-88
2021/11/17 16:33:29;;;;;;;22.07;15.90;;;10.40;99.90;;;;;;4967929;28;20471;-87
2021/11/17 16:36:01;;;;;;;20.23;15.03;;;10.40;99.90;;;;;;4962610;28;20463;-88
2021/11/17 16:38:29;;;;;;;24.47;14.90;;;10.40;99.90;;;;;;4973183;28;20497;-84
2021/11/17 16:41:04;;;;;;;22.03;15.20;;;10.40;99.90;;;;;;4978066;28;20485;-88
2021/11/17 16:43:32;;;;;;;17.87;14.80;;;10.40;99.90;;;;;;4972892;28;20872;-87
2021/11/17 16:46:06;;;;;;;21.80;15.27;;;10.40;99.90;;;;;;4959559;28;20498;-84